sensor_id;sensor_type;location;lat;lon;timestamp;pressure;altitude;pressure_sealevel;temperature;humidity
28456;BME280;15682;56.742;38.866;2023-01-27T00:00:47;99570.0;;;-1.0;94.7
28456;BME280;15682;56.742;38.866;2023-01-27T00:02:44;99570.0;;;-0.8;94.6
28456;BME280;15682;56.742;38.866;2023-01-27T00:04:43;99570.0;;;-0.8;94.6
28456;BME280;15682;56.742;38.866;2023-01-27T00:06:44;99570.0;;;-0.8;94.2
28456;BME280;15682;56.742;38.866;2023-01-27T00:08:43;99570.0;;;-0.8;94.2
28456;BME280;15682;56.742;38.866;2023-01-27T00:10:43;99570.0;;;-0.7;93.7
28456;BME280;15682;56.742;38.866;2023-01-27T00:12:44;99570.0;;;-0.8;94.3
28456;BME280;15682;56.742;38.866;2023-01-27T00:14:43;99570.0;;;-0.8;94.3
28456;BME280;15682;56.742;38.866;2023-01-27T00:16:43;99570.0;;;-0.8;94.3
28456;BME280;15682;56.742;38.866;2023-01-27T00:18:43;99570.0;;;-0.7;94.3
28456;BME280;15682;56.742;38.866;2023-01-27T00:20:42;99570.0;;;-0.7;95.1
28456;BME280;15682;56.742;38.866;2023-01-27T00:22:42;99570.0;;;-0.7;93.3
28456;BME280;15682;56.742;38.866;2023-01-27T00:24:42;99570.0;;;-0.8;93.3
28456;BME280;15682;56.742;38.866;2023-01-27T00:26:42;99570.0;;;-0.8;94.0
28456;BME280;15682;56.742;38.866;2023-01-27T00:28:43;99570.0;;;-0.8;94.0
28456;BME280;15682;56.742;38.866;2023-01-27T00:30:42;99570.0;;;-0.7;93.3
28456;BME280;15682;56.742;38.866;2023-01-27T00:32:41;99570.0;;;-0.7;92.7
28456;BME280;15682;56.742;38.866;2023-01-27T00:34:41;99560.0;;;-0.8;92.7
28456;BME280;15682;56.742;38.866;2023-01-27T00:36:41;99560.0;;;-0.7;92.7
28456;BME280;15682;56.742;38.866;2023-01-27T00:38:41;99560.0;;;-0.7;92.7
28456;BME280;15682;56.742;38.866;2023-01-27T00:40:41;99550.0;;;-0.8;92.7
28456;BME280;15682;56.742;38.866;2023-01-27T00:42:41;99550.0;;;-0.8;93.3
28456;BME280;15682;56.742;38.866;2023-01-27T00:44:41;99550.0;;;-0.8;93.9
28456;BME280;15682;56.742;38.866;2023-01-27T00:46:41;99550.0;;;-0.8;93.3
28456;BME280;15682;56.742;38.866;2023-01-27T00:48:41;99540.0;;;-0.8;93.3
28456;BME280;15682;56.742;38.866;2023-01-27T00:50:40;99540.0;;;-0.9;93.3
28456;BME280;15682;56.742;38.866;2023-01-27T00:52:40;99540.0;;;-0.9;94.0
28456;BME280;15682;56.742;38.866;2023-01-27T00:54:40;99540.0;;;-0.8;94.0
28456;BME280;15682;56.742;38.866;2023-01-27T00:56:40;99540.0;;;-0.8;94.0
28456;BME280;15682;56.742;38.866;2023-01-27T00:58:41;99540.0;;;-0.8;94.0
28456;BME280;15682;56.742;38.866;2023-01-27T01:00:40;99540.0;;;-0.8;94.0
28456;BME280;15682;56.742;38.866;2023-01-27T01:02:40;99540.0;;;-0.8;93.6
28456;BME280;15682;56.742;38.866;2023-01-27T01:04:39;99540.0;;;-0.8;93.6
28456;BME280;15682;56.742;38.866;2023-01-27T01:06:39;99540.0;;;-0.8;93.6
28456;BME280;15682;56.742;38.866;2023-01-27T01:08:40;99540.0;;;-0.8;93.6
28456;BME280;15682;56.742;38.866;2023-01-27T01:10:39;99540.0;;;-0.9;93.1
28456;BME280;15682;56.742;38.866;2023-01-27T01:12:39;99540.0;;;-0.9;93.3
28456;BME280;15682;56.742;38.866;2023-01-27T01:14:39;99540.0;;;-0.7;94.0
28456;BME280;15682;56.742;38.866;2023-01-27T01:16:39;99540.0;;;-0.7;93.2
28456;BME280;15682;56.742;38.866;2023-01-27T01:18:39;99540.0;;;-0.8;93.2
28456;BME280;15682;56.742;38.866;2023-01-27T01:20:41;99540.0;;;-0.8;94.3
28456;BME280;15682;56.742;38.866;2023-01-27T01:22:38;99540.0;;;-0.8;93.8
28456;BME280;15682;56.742;38.866;2023-01-27T01:24:38;99540.0;;;-0.8;93.8
28456;BME280;15682;56.742;38.866;2023-01-27T01:26:38;99540.0;;;-0.8;93.8
28456;BME280;15682;56.742;38.866;2023-01-27T01:28:38;99540.0;;;-0.8;93.8
28456;BME280;15682;56.742;38.866;2023-01-27T01:30:38;99540.0;;;-0.9;93.1
28456;BME280;15682;56.742;38.866;2023-01-27T01:32:38;99540.0;;;-0.9;93.8
28456;BME280;15682;56.742;38.866;2023-01-27T01:34:38;99540.0;;;-0.9;93.8
28456;BME280;15682;56.742;38.866;2023-01-27T01:36:38;99540.0;;;-0.9;93.8
28456;BME280;15682;56.742;38.866;2023-01-27T01:38:38;99540.0;;;-0.9;93.8
28456;BME280;15682;56.742;38.866;2023-01-27T01:40:39;99540.0;;;-0.8;93.8
28456;BME280;15682;56.742;38.866;2023-01-27T01:42:50;99540.0;;;-0.8;94.3
28456;BME280;15682;56.742;38.866;2023-01-27T01:44:42;99540.0;;;-0.8;94.3
28456;BME280;15682;56.742;38.866;2023-01-27T01:46:37;99540.0;;;-0.8;94.3
28456;BME280;15682;56.742;38.866;2023-01-27T01:48:39;99540.0;;;-0.8;93.5
28456;BME280;15682;56.742;38.866;2023-01-27T01:50:38;99540.0;;;-0.7;94.2
28456;BME280;15682;56.742;38.866;2023-01-27T01:52:37;99540.0;;;-0.7;93.7
28456;BME280;15682;56.742;38.866;2023-01-27T01:54:40;99540.0;;;-0.8;94.7
28456;BME280;15682;56.742;38.866;2023-01-27T01:56:40;99540.0;;;-0.7;95.3
28456;BME280;15682;56.742;38.866;2023-01-27T01:58:37;99540.0;;;-0.7;93.8
28456;BME280;15682;56.742;38.866;2023-01-27T02:00:36;99540.0;;;-0.7;93.8
28456;BME280;15682;56.742;38.866;2023-01-27T02:02:37;99540.0;;;-0.7;93.8
28456;BME280;15682;56.742;38.866;2023-01-27T02:04:41;99540.0;;;-0.7;94.8
28456;BME280;15682;56.742;38.866;2023-01-27T02:06:41;99540.0;;;-0.9;94.2
28456;BME280;15682;56.742;38.866;2023-01-27T02:08:38;99540.0;;;-0.9;94.8
28456;BME280;15682;56.742;38.866;2023-01-27T02:10:36;99540.0;;;-0.8;94.8
28456;BME280;15682;56.742;38.866;2023-01-27T02:12:36;99540.0;;;-0.7;94.7
28456;BME280;15682;56.742;38.866;2023-01-27T02:14:36;99540.0;;;-0.7;94.7
28456;BME280;15682;56.742;38.866;2023-01-27T02:16:36;99540.0;;;-0.7;94.7
28456;BME280;15682;56.742;38.866;2023-01-27T02:18:36;99540.0;;;-0.7;94.7
28456;BME280;15682;56.742;38.866;2023-01-27T02:20:40;99540.0;;;-0.7;94.7
28456;BME280;15682;56.742;38.866;2023-01-27T02:22:40;99540.0;;;-0.7;94.7
28456;BME280;15682;56.742;38.866;2023-01-27T02:24:38;99530.0;;;-0.9;94.7
28456;BME280;15682;56.742;38.866;2023-01-27T02:26:37;99530.0;;;-0.8;94.7
28456;BME280;15682;56.742;38.866;2023-01-27T02:28:35;99530.0;;;-0.9;94.2
28456;BME280;15682;56.742;38.866;2023-01-27T02:30:35;99530.0;;;-0.8;94.2
28456;BME280;15682;56.742;38.866;2023-01-27T02:32:35;99530.0;;;-0.8;94.1
28456;BME280;15682;56.742;38.866;2023-01-27T02:34:36;99520.0;;;-0.8;94.7
28456;BME280;15682;56.742;38.866;2023-01-27T02:36:38;99520.0;;;-0.8;94.0
28456;BME280;15682;56.742;38.866;2023-01-27T02:38:37;99520.0;;;-0.8;94.0
28456;BME280;15682;56.742;38.866;2023-01-27T02:40:35;99520.0;;;-0.7;94.6
28456;BME280;15682;56.742;38.866;2023-01-27T02:42:34;99520.0;;;-0.7;94.0
28456;BME280;15682;56.742;38.866;2023-01-27T02:44:34;99520.0;;;-0.8;94.0
28456;BME280;15682;56.742;38.866;2023-01-27T02:46:34;99520.0;;;-0.8;94.0
28456;BME280;15682;56.742;38.866;2023-01-27T02:48:34;99520.0;;;-0.9;94.6
28456;BME280;15682;56.742;38.866;2023-01-27T02:50:33;99520.0;;;-0.8;94.6
28456;BME280;15682;56.742;38.866;2023-01-27T02:52:33;99520.0;;;-0.8;93.7
28456;BME280;15682;56.742;38.866;2023-01-27T02:54:33;99520.0;;;-0.8;94.3
28456;BME280;15682;56.742;38.866;2023-01-27T02:56:33;99520.0;;;-0.8;94.2
28456;BME280;15682;56.742;38.866;2023-01-27T02:58:33;99520.0;;;-0.8;94.2
28456;BME280;15682;56.742;38.866;2023-01-27T03:00:33;99520.0;;;-0.9;94.2
28456;BME280;15682;56.742;38.866;2023-01-27T03:02:33;99520.0;;;-0.9;94.0
28456;BME280;15682;56.742;38.866;2023-01-27T03:04:33;99520.0;;;-0.9;95.0
28456;BME280;15682;56.742;38.866;2023-01-27T03:06:33;99520.0;;;-0.9;94.3
28456;BME280;15682;56.742;38.866;2023-01-27T03:08:32;99520.0;;;-0.9;94.4
28456;BME280;15682;56.742;38.866;2023-01-27T03:10:32;99520.0;;;-0.8;93.7
28456;BME280;15682;56.742;38.866;2023-01-27T03:12:32;99520.0;;;-0.8;93.2
28456;BME280;15682;56.742;38.866;2023-01-27T03:14:32;99520.0;;;-0.7;94.0
28456;BME280;15682;56.742;38.866;2023-01-27T03:16:32;99520.0;;;-0.7;93.4
28456;BME280;15682;56.742;38.866;2023-01-27T03:18:32;99520.0;;;-0.7;93.4
28456;BME280;15682;56.742;38.866;2023-01-27T03:20:32;99520.0;;;-0.7;93.4
28456;BME280;15682;56.742;38.866;2023-01-27T03:22:32;99520.0;;;-0.7;92.6
28456;BME280;15682;56.742;38.866;2023-01-27T03:24:31;99520.0;;;-0.7;93.1
28456;BME280;15682;56.742;38.866;2023-01-27T03:26:31;99520.0;;;-0.7;93.2
28456;BME280;15682;56.742;38.866;2023-01-27T03:28:31;99520.0;;;-0.7;93.2
28456;BME280;15682;56.742;38.866;2023-01-27T03:30:31;99520.0;;;-0.7;92.9
28456;BME280;15682;56.742;38.866;2023-01-27T03:32:31;99520.0;;;-0.7;94.0
28456;BME280;15682;56.742;38.866;2023-01-27T03:34:31;99520.0;;;-0.7;93.1
28456;BME280;15682;56.742;38.866;2023-01-27T03:36:31;99520.0;;;-0.7;92.1
28456;BME280;15682;56.742;38.866;2023-01-27T03:38:31;99520.0;;;-0.7;92.5
28456;BME280;15682;56.742;38.866;2023-01-27T03:40:30;99520.0;;;-0.7;92.7
28456;BME280;15682;56.742;38.866;2023-01-27T03:42:30;99520.0;;;-0.7;92.7
28456;BME280;15682;56.742;38.866;2023-01-27T03:44:30;99520.0;;;-0.7;93.3
28456;BME280;15682;56.742;38.866;2023-01-27T03:46:30;99520.0;;;-0.7;92.4
28456;BME280;15682;56.742;38.866;2023-01-27T03:48:30;99520.0;;;-0.7;91.6
28456;BME280;15682;56.742;38.866;2023-01-27T03:50:30;99520.0;;;-0.7;91.6
28456;BME280;15682;56.742;38.866;2023-01-27T03:52:30;99520.0;;;-0.7;92.7
28456;BME280;15682;56.742;38.866;2023-01-27T03:54:30;99520.0;;;-0.7;92.7
28456;BME280;15682;56.742;38.866;2023-01-27T03:56:29;99520.0;;;-0.7;92.7
28456;BME280;15682;56.742;38.866;2023-01-27T03:58:32;99520.0;;;-0.7;92.7
28456;BME280;15682;56.742;38.866;2023-01-27T04:00:29;99520.0;;;-0.7;92.7
28456;BME280;15682;56.742;38.866;2023-01-27T04:02:32;99520.0;;;-0.7;93.5
28456;BME280;15682;56.742;38.866;2023-01-27T04:04:29;99520.0;;;-0.8;92.6
28456;BME280;15682;56.742;38.866;2023-01-27T04:06:31;99530.0;;;-0.8;92.6
28456;BME280;15682;56.742;38.866;2023-01-27T04:08:29;99530.0;;;-0.8;92.6
28456;BME280;15682;56.742;38.866;2023-01-27T04:10:29;99530.0;;;-0.7;92.1
28456;BME280;15682;56.742;38.866;2023-01-27T04:12:29;99530.0;;;-0.7;92.7
28456;BME280;15682;56.742;38.866;2023-01-27T04:14:30;99530.0;;;-0.7;92.7
28456;BME280;15682;56.742;38.866;2023-01-27T04:16:28;99530.0;;;-0.7;92.7
28456;BME280;15682;56.742;38.866;2023-01-27T04:18:28;99530.0;;;-0.8;92.1
28456;BME280;15682;56.742;38.866;2023-01-27T04:20:28;99530.0;;;-0.8;92.9
28456;BME280;15682;56.742;38.866;2023-01-27T04:22:28;99530.0;;;-0.8;92.9
28456;BME280;15682;56.742;38.866;2023-01-27T04:24:28;99530.0;;;-0.8;92.9
28456;BME280;15682;56.742;38.866;2023-01-27T04:26:28;99540.0;;;-0.8;92.9
28456;BME280;15682;56.742;38.866;2023-01-27T04:28:28;99540.0;;;-0.8;92.9
28456;BME280;15682;56.742;38.866;2023-01-27T04:30:27;99540.0;;;-0.8;92.4
28456;BME280;15682;56.742;38.866;2023-01-27T04:32:27;99540.0;;;-0.8;93.4
28456;BME280;15682;56.742;38.866;2023-01-27T04:34:28;99540.0;;;-0.8;93.4
28456;BME280;15682;56.742;38.866;2023-01-27T04:36:27;99540.0;;;-0.8;92.5
28456;BME280;15682;56.742;38.866;2023-01-27T04:38:27;99540.0;;;-0.8;93.3
28456;BME280;15682;56.742;38.866;2023-01-27T04:40:27;99540.0;;;-0.8;93.3
28456;BME280;15682;56.742;38.866;2023-01-27T04:42:27;99540.0;;;-0.8;94.0
28456;BME280;15682;56.742;38.866;2023-01-27T04:44:27;99540.0;;;-0.8;94.0
28456;BME280;15682;56.742;38.866;2023-01-27T04:46:26;99540.0;;;-1.0;93.2
28456;BME280;15682;56.742;38.866;2023-01-27T04:48:26;99540.0;;;-1.0;93.9
28456;BME280;15682;56.742;38.866;2023-01-27T04:50:26;99550.0;;;-1.0;93.9
28456;BME280;15682;56.742;38.866;2023-01-27T04:52:26;99550.0;;;-1.0;94.1
28456;BME280;15682;56.742;38.866;2023-01-27T04:54:26;99550.0;;;-1.0;94.6
28456;BME280;15682;56.742;38.866;2023-01-27T04:56:28;99550.0;;;-1.0;94.1
28456;BME280;15682;56.742;38.866;2023-01-27T04:58:26;99550.0;;;-1.1;94.8
28456;BME280;15682;56.742;38.866;2023-01-27T05:00:26;99550.0;;;-1.0;94.8
28456;BME280;15682;56.742;38.866;2023-01-27T05:02:25;99550.0;;;-1.0;94.2
28456;BME280;15682;56.742;38.866;2023-01-27T05:04:25;99550.0;;;-1.0;94.9
28456;BME280;15682;56.742;38.866;2023-01-27T05:06:26;99550.0;;;-1.0;94.9
28456;BME280;15682;56.742;38.866;2023-01-27T05:08:25;99550.0;;;-1.0;94.8
28456;BME280;15682;56.742;38.866;2023-01-27T05:10:25;99550.0;;;-1.1;94.8
28456;BME280;15682;56.742;38.866;2023-01-27T05:12:25;99550.0;;;-1.1;94.9
28456;BME280;15682;56.742;38.866;2023-01-27T05:14:25;99550.0;;;-1.1;94.9
28456;BME280;15682;56.742;38.866;2023-01-27T05:16:24;99560.0;;;-1.1;94.9
28456;BME280;15682;56.742;38.866;2023-01-27T05:18:24;99560.0;;;-1.1;94.9
28456;BME280;15682;56.742;38.866;2023-01-27T05:20:25;99560.0;;;-1.1;94.1
28456;BME280;15682;56.742;38.866;2023-01-27T05:22:24;99560.0;;;-1.1;94.7
28456;BME280;15682;56.742;38.866;2023-01-27T05:24:24;99560.0;;;-1.1;94.7
28456;BME280;15682;56.742;38.866;2023-01-27T05:26:25;99560.0;;;-1.1;94.7
28456;BME280;15682;56.742;38.866;2023-01-27T05:28:24;99560.0;;;-1.1;94.7
28456;BME280;15682;56.742;38.866;2023-01-27T05:30:23;99570.0;;;-1.0;94.1
28456;BME280;15682;56.742;38.866;2023-01-27T05:32:23;99570.0;;;-1.1;94.3
28456;BME280;15682;56.742;38.866;2023-01-27T05:34:23;99570.0;;;-1.1;94.7
28456;BME280;15682;56.742;38.866;2023-01-27T05:36:24;99570.0;;;-1.1;94.7
28456;BME280;15682;56.742;38.866;2023-01-27T05:38:23;99570.0;;;-1.0;94.7
28456;BME280;15682;56.742;38.866;2023-01-27T05:40:23;99580.0;;;-1.1;94.7
28456;BME280;15682;56.742;38.866;2023-01-27T05:42:23;99580.0;;;-1.1;94.6
28456;BME280;15682;56.742;38.866;2023-01-27T05:44:23;99580.0;;;-1.1;94.6
28456;BME280;15682;56.742;38.866;2023-01-27T05:46:24;99580.0;;;-1.1;94.6
28456;BME280;15682;56.742;38.866;2023-01-27T05:48:22;99580.0;;;-1.2;94.6
28456;BME280;15682;56.742;38.866;2023-01-27T05:50:22;99590.0;;;-1.0;95.2
28456;BME280;15682;56.742;38.866;2023-01-27T05:52:22;99590.0;;;-1.0;94.4
28456;BME280;15682;56.742;38.866;2023-01-27T05:54:22;99590.0;;;-1.0;94.4
28456;BME280;15682;56.742;38.866;2023-01-27T05:56:23;99590.0;;;-1.0;94.4
28456;BME280;15682;56.742;38.866;2023-01-27T05:58:22;99590.0;;;-1.0;94.4
28456;BME280;15682;56.742;38.866;2023-01-27T06:00:22;99590.0;;;-1.1;94.4
28456;BME280;15682;56.742;38.866;2023-01-27T06:02:22;99590.0;;;-1.1;94.2
28456;BME280;15682;56.742;38.866;2023-01-27T06:04:21;99590.0;;;-1.1;94.2
28456;BME280;15682;56.742;38.866;2023-01-27T06:06:23;99600.0;;;-1.1;94.2
28456;BME280;15682;56.742;38.866;2023-01-27T06:08:22;99600.0;;;-1.1;94.2
28456;BME280;15682;56.742;38.866;2023-01-27T06:10:21;99600.0;;;-1.1;93.8
28456;BME280;15682;56.742;38.866;2023-01-27T06:12:21;99600.0;;;-1.1;94.4
28456;BME280;15682;56.742;38.866;2023-01-27T06:14:21;99600.0;;;-1.1;94.4
28456;BME280;15682;56.742;38.866;2023-01-27T06:16:21;99600.0;;;-1.1;93.8
28456;BME280;15682;56.742;38.866;2023-01-27T06:18:21;99600.0;;;-1.1;94.3
28456;BME280;15682;56.742;38.866;2023-01-27T06:20:20;99600.0;;;-1.0;94.3
28456;BME280;15682;56.742;38.866;2023-01-27T06:22:20;99610.0;;;-0.9;93.6
28456;BME280;15682;56.742;38.866;2023-01-27T06:24:20;99610.0;;;-0.9;93.6
28456;BME280;15682;56.742;38.866;2023-01-27T06:26:20;99610.0;;;-0.9;93.6
28456;BME280;15682;56.742;38.866;2023-01-27T06:28:20;99610.0;;;-1.0;93.6
28456;BME280;15682;56.742;38.866;2023-01-27T06:30:20;99610.0;;;-1.0;93.0
28456;BME280;15682;56.742;38.866;2023-01-27T06:32:20;99610.0;;;-0.8;93.6
28456;BME280;15682;56.742;38.866;2023-01-27T06:34:20;99610.0;;;-0.8;92.6
28456;BME280;15682;56.742;38.866;2023-01-27T06:36:20;99610.0;;;-1.0;92.6
28456;BME280;15682;56.742;38.866;2023-01-27T06:38:19;99610.0;;;-1.0;93.3
28456;BME280;15682;56.742;38.866;2023-01-27T06:40:19;99610.0;;;-0.9;93.3
28456;BME280;15682;56.742;38.866;2023-01-27T06:42:19;99610.0;;;-0.9;92.8
28456;BME280;15682;56.742;38.866;2023-01-27T06:44:19;99610.0;;;-1.0;92.8
28456;BME280;15682;56.742;38.866;2023-01-27T06:46:19;99610.0;;;-0.9;92.8
28456;BME280;15682;56.742;38.866;2023-01-27T06:48:19;99610.0;;;-0.9;92.8
28456;BME280;15682;56.742;38.866;2023-01-27T06:50:19;99610.0;;;-0.9;92.4
28456;BME280;15682;56.742;38.866;2023-01-27T06:52:19;99610.0;;;-0.9;93.0
28456;BME280;15682;56.742;38.866;2023-01-27T06:54:18;99610.0;;;-0.9;93.0
28456;BME280;15682;56.742;38.866;2023-01-27T06:56:18;99610.0;;;-0.9;93.0
28456;BME280;15682;56.742;38.866;2023-01-27T06:58:18;99610.0;;;-0.9;93.0
28456;BME280;15682;56.742;38.866;2023-01-27T07:00:19;99610.0;;;-0.8;92.3
28456;BME280;15682;56.742;38.866;2023-01-27T07:02:18;99610.0;;;-0.8;92.7
28456;BME280;15682;56.742;38.866;2023-01-27T07:04:18;99610.0;;;-0.8;92.9
28456;BME280;15682;56.742;38.866;2023-01-27T07:06:18;99610.0;;;-0.8;93.7
28456;BME280;15682;56.742;38.866;2023-01-27T07:08:18;99620.0;;;-0.6;93.1
28456;BME280;15682;56.742;38.866;2023-01-27T07:10:18;99620.0;;;-0.7;92.4
28456;BME280;15682;56.742;38.866;2023-01-27T07:12:17;99620.0;;;-0.7;92.5
28456;BME280;15682;56.742;38.866;2023-01-27T07:14:17;99620.0;;;-0.4;93.1
28456;BME280;15682;56.742;38.866;2023-01-27T07:16:17;99620.0;;;-0.5;92.0
28456;BME280;15682;56.742;38.866;2023-01-27T07:18:17;99620.0;;;-0.3;93.9
28456;BME280;15682;56.742;38.866;2023-01-27T07:20:17;99620.0;;;-0.4;92.0
28456;BME280;15682;56.742;38.866;2023-01-27T07:22:17;99620.0;;;-0.4;92.7
28456;BME280;15682;56.742;38.866;2023-01-27T07:24:17;99620.0;;;-0.4;92.2
28456;BME280;15682;56.742;38.866;2023-01-27T07:26:17;99620.0;;;-0.4;92.2
28456;BME280;15682;56.742;38.866;2023-01-27T07:28:17;99620.0;;;-0.6;92.2
28456;BME280;15682;56.742;38.866;2023-01-27T07:30:17;99630.0;;;-0.5;92.2
28456;BME280;15682;56.742;38.866;2023-01-27T07:32:16;99630.0;;;-0.4;92.5
28456;BME280;15682;56.742;38.866;2023-01-27T07:34:16;99630.0;;;-0.5;91.5
28456;BME280;15682;56.742;38.866;2023-01-27T07:36:16;99640.0;;;-0.4;91.5
28456;BME280;15682;56.742;38.866;2023-01-27T07:38:16;99640.0;;;-0.4;91.5
28456;BME280;15682;56.742;38.866;2023-01-27T07:40:17;99650.0;;;-0.3;91.6
28456;BME280;15682;56.742;38.866;2023-01-27T07:42:16;99650.0;;;-0.3;91.5
28456;BME280;15682;56.742;38.866;2023-01-27T07:44:16;99650.0;;;-0.3;91.0
28456;BME280;15682;56.742;38.866;2023-01-27T07:46:16;99650.0;;;-0.5;91.0
28456;BME280;15682;56.742;38.866;2023-01-27T07:48:15;99650.0;;;-0.4;92.1
28456;BME280;15682;56.742;38.866;2023-01-27T07:50:16;99650.0;;;-0.4;91.4
28456;BME280;15682;56.742;38.866;2023-01-27T07:52:15;99650.0;;;-0.4;91.9
28456;BME280;15682;56.742;38.866;2023-01-27T07:54:15;99650.0;;;-0.4;91.9
28456;BME280;15682;56.742;38.866;2023-01-27T07:56:15;99650.0;;;-0.4;91.2
28456;BME280;15682;56.742;38.866;2023-01-27T07:58:15;99650.0;;;-0.2;91.8
28456;BME280;15682;56.742;38.866;2023-01-27T08:00:16;99650.0;;;-0.2;91.2
28456;BME280;15682;56.742;38.866;2023-01-27T08:02:15;99650.0;;;-0.2;91.2
28456;BME280;15682;56.742;38.866;2023-01-27T08:04:15;99650.0;;;-0.1;90.2
28456;BME280;15682;56.742;38.866;2023-01-27T08:06:15;99650.0;;;-0.1;90.2
28456;BME280;15682;56.742;38.866;2023-01-27T08:08:15;99650.0;;;-0.3;91.6
28456;BME280;15682;56.742;38.866;2023-01-27T08:10:15;99660.0;;;-0.2;91.6
28456;BME280;15682;56.742;38.866;2023-01-27T08:12:14;99660.0;;;-0.2;91.2
28456;BME280;15682;56.742;38.866;2023-01-27T08:14:14;99660.0;;;-0.1;90.7
28456;BME280;15682;56.742;38.866;2023-01-27T08:16:14;99660.0;;;-0.1;90.7
28456;BME280;15682;56.742;38.866;2023-01-27T08:18:14;99660.0;;;-0.1;90.0
28456;BME280;15682;56.742;38.866;2023-01-27T08:20:14;99660.0;;;-0.2;91.1
28456;BME280;15682;56.742;38.866;2023-01-27T08:22:14;99670.0;;;-0.2;90.6
28456;BME280;15682;56.742;38.866;2023-01-27T08:24:14;99670.0;;;-0.2;89.7
28456;BME280;15682;56.742;38.866;2023-01-27T08:26:14;99670.0;;;-0.2;91.2
28456;BME280;15682;56.742;38.866;2023-01-27T08:28:13;99670.0;;;0.0;90.9
28456;BME280;15682;56.742;38.866;2023-01-27T08:30:14;99670.0;;;-0.1;90.6
28456;BME280;15682;56.742;38.866;2023-01-27T08:32:13;99670.0;;;-0.1;91.0
28456;BME280;15682;56.742;38.866;2023-01-27T08:34:13;99670.0;;;-0.1;91.0
28456;BME280;15682;56.742;38.866;2023-01-27T08:36:17;99670.0;;;-0.1;91.0
28456;BME280;15682;56.742;38.866;2023-01-27T08:38:15;99670.0;;;-0.1;91.0
28456;BME280;15682;56.742;38.866;2023-01-27T08:40:14;99670.0;;;0.0;91.0
28456;BME280;15682;56.742;38.866;2023-01-27T08:42:13;99670.0;;;0.0;90.5
28456;BME280;15682;56.742;38.866;2023-01-27T08:44:13;99670.0;;;0.1;90.5
28456;BME280;15682;56.742;38.866;2023-01-27T08:46:13;99670.0;;;0.1;89.8
28456;BME280;15682;56.742;38.866;2023-01-27T08:48:13;99670.0;;;0.1;89.4
28456;BME280;15682;56.742;38.866;2023-01-27T08:50:13;99670.0;;;0.1;89.4
28456;BME280;15682;56.742;38.866;2023-01-27T08:52:13;99680.0;;;0.1;88.7
28456;BME280;15682;56.742;38.866;2023-01-27T08:54:12;99680.0;;;0.1;89.6
28456;BME280;15682;56.742;38.866;2023-01-27T08:56:14;99680.0;;;0.1;89.4
28456;BME280;15682;56.742;38.866;2023-01-27T08:58:12;99680.0;;;0.1;89.4
28456;BME280;15682;56.742;38.866;2023-01-27T09:00:13;99680.0;;;0.1;89.9
28456;BME280;15682;56.742;38.866;2023-01-27T09:02:12;99680.0;;;0.1;89.4
28456;BME280;15682;56.742;38.866;2023-01-27T09:04:12;99680.0;;;0.1;90.3
28456;BME280;15682;56.742;38.866;2023-01-27T09:06:12;99680.0;;;0.1;90.3
28456;BME280;15682;56.742;38.866;2023-01-27T09:08:12;99680.0;;;-0.0;91.0
28456;BME280;15682;56.742;38.866;2023-01-27T09:10:13;99680.0;;;0.1;91.2
28456;BME280;15682;56.742;38.866;2023-01-27T09:12:12;99680.0;;;0.1;90.9
28456;BME280;15682;56.742;38.866;2023-01-27T09:14:12;99680.0;;;0.1;91.7
28456;BME280;15682;56.742;38.866;2023-01-27T09:16:12;99680.0;;;0.1;91.7
28456;BME280;15682;56.742;38.866;2023-01-27T09:18:11;99680.0;;;0.1;93.3
28456;BME280;15682;56.742;38.866;2023-01-27T09:20:12;99680.0;;;-0.0;91.9
28456;BME280;15682;56.742;38.866;2023-01-27T09:22:11;99680.0;;;-0.0;92.0
28456;BME280;15682;56.742;38.866;2023-01-27T09:24:11;99680.0;;;-0.0;92.5
28456;BME280;15682;56.742;38.866;2023-01-27T09:26:11;99680.0;;;-0.0;92.5
28456;BME280;15682;56.742;38.866;2023-01-27T09:28:11;99680.0;;;-0.0;92.5
28456;BME280;15682;56.742;38.866;2023-01-27T09:30:14;99680.0;;;-0.0;92.5
28456;BME280;15682;56.742;38.866;2023-01-27T09:32:11;99680.0;;;-0.0;91.8
28456;BME280;15682;56.742;38.866;2023-01-27T09:34:11;99680.0;;;-0.0;91.8
28456;BME280;15682;56.742;38.866;2023-01-27T09:36:13;99680.0;;;-0.0;92.4
28456;BME280;15682;56.742;38.866;2023-01-27T09:38:13;99680.0;;;0.1;91.9
28456;BME280;15682;56.742;38.866;2023-01-27T09:40:20;99680.0;;;0.2;92.2
28456;BME280;15682;56.742;38.866;2023-01-27T09:42:23;99680.0;;;0.1;92.2
28456;BME280;15682;56.742;38.866;2023-01-27T09:44:22;99680.0;;;0.1;92.2
28456;BME280;15682;56.742;38.866;2023-01-27T09:46:20;99680.0;;;0.0;92.2
28456;BME280;15682;56.742;38.866;2023-01-27T09:48:23;99680.0;;;0.0;92.2
28456;BME280;15682;56.742;38.866;2023-01-27T09:52:24;99680.0;;;-0.1;92.3
28456;BME280;15682;56.742;38.866;2023-01-27T09:54:23;99680.0;;;0.2;92.8
28456;BME280;15682;56.742;38.866;2023-01-27T09:56:14;99680.0;;;-0.0;92.2
28456;BME280;15682;56.742;38.866;2023-01-27T09:58:16;99690.0;;;-0.0;92.2
28456;BME280;15682;56.742;38.866;2023-01-27T10:00:27;99690.0;;;0.2;91.5
28456;BME280;15682;56.742;38.866;2023-01-27T10:02:16;99690.0;;;0.2;91.2
28456;BME280;15682;56.742;38.866;2023-01-27T10:04:26;99690.0;;;0.1;91.2
28456;BME280;15682;56.742;38.866;2023-01-27T10:06:28;99690.0;;;0.2;90.8
28456;BME280;15682;56.742;38.866;2023-01-27T10:08:22;99690.0;;;0.2;91.4
28456;BME280;15682;56.742;38.866;2023-01-27T10:10:24;99690.0;;;0.4;90.7
28456;BME280;15682;56.742;38.866;2023-01-27T10:12:18;99690.0;;;0.4;90.3
28456;BME280;15682;56.742;38.866;2023-01-27T10:14:17;99690.0;;;0.5;90.3
28456;BME280;15682;56.742;38.866;2023-01-27T10:16:19;99690.0;;;0.6;89.4
28456;BME280;15682;56.742;38.866;2023-01-27T10:18:21;99690.0;;;0.6;89.7
28456;BME280;15682;56.742;38.866;2023-01-27T10:20:19;99690.0;;;0.6;89.7
28456;BME280;15682;56.742;38.866;2023-01-27T10:22:16;99690.0;;;0.6;89.8
28456;BME280;15682;56.742;38.866;2023-01-27T10:24:15;99690.0;;;0.6;89.8
28456;BME280;15682;56.742;38.866;2023-01-27T10:26:18;99690.0;;;0.6;89.8
28456;BME280;15682;56.742;38.866;2023-01-27T10:28:12;99690.0;;;0.6;89.8
28456;BME280;15682;56.742;38.866;2023-01-27T10:30:13;99690.0;;;0.7;89.8
28456;BME280;15682;56.742;38.866;2023-01-27T10:32:14;99700.0;;;0.7;90.2
28456;BME280;15682;56.742;38.866;2023-01-27T10:34:18;99700.0;;;0.7;89.7
28456;BME280;15682;56.742;38.866;2023-01-27T10:36:16;99700.0;;;0.7;89.0
28456;BME280;15682;56.742;38.866;2023-01-27T10:38:13;99700.0;;;0.7;90.1
28456;BME280;15682;56.742;38.866;2023-01-27T10:40:16;99700.0;;;0.6;89.6
28456;BME280;15682;56.742;38.866;2023-01-27T10:42:14;99700.0;;;0.5;89.5
28456;BME280;15682;56.742;38.866;2023-01-27T10:44:20;99700.0;;;0.5;89.5
28456;BME280;15682;56.742;38.866;2023-01-27T10:46:12;99700.0;;;0.5;89.5
28456;BME280;15682;56.742;38.866;2023-01-27T10:48:21;99700.0;;;0.5;90.1
28456;BME280;15682;56.742;38.866;2023-01-27T10:50:11;99700.0;;;0.5;90.1
28456;BME280;15682;56.742;38.866;2023-01-27T10:52:10;99700.0;;;0.3;89.9
28456;BME280;15682;56.742;38.866;2023-01-27T10:54:11;99700.0;;;0.3;89.9
28456;BME280;15682;56.742;38.866;2023-01-27T10:56:13;99700.0;;;0.3;90.9